createdAt,value
2023-11-30T00:01:10.522Z,95687.91
2023-11-30T00:03:38.274Z,95688.63
2023-11-30T00:06:06.604Z,95687.16
2023-11-30T00:08:34.284Z,95683.66
2023-11-30T00:11:01.884Z,95680.50
2023-11-30T00:13:29.598Z,95682.38
2023-11-30T00:15:58.562Z,95679.88
2023-11-30T00:18:26.362Z,95679.22
2023-11-30T00:20:54.079Z,95665.47
2023-11-30T00:23:21.745Z,95665.66
2023-11-30T00:25:49.377Z,95666.78
2023-11-30T00:28:17.005Z,95661.53
2023-11-30T00:30:44.705Z,95661.72
2023-11-30T00:33:13.695Z,95650.69
2023-11-30T00:35:41.353Z,95652.50
2023-11-30T00:38:08.950Z,95646.75
2023-11-30T00:40:38.842Z,95643.38
2023-11-30T00:43:06.512Z,95641.16
2023-11-30T00:45:34.695Z,95633.78
2023-11-30T00:48:02.600Z,95626.53
2023-11-30T00:50:31.642Z,95625.72
2023-11-30T00:52:59.253Z,95624.13
2023-11-30T00:55:26.863Z,95631.97
2023-11-30T00:57:54.621Z,95634.81
2023-11-30T01:00:23.279Z,95632.94
2023-11-30T01:02:50.934Z,95625.72
2023-11-30T01:05:18.558Z,95638.94
2023-11-30T01:07:47.580Z,95645.00
2023-11-30T01:10:15.162Z,95637.97
2023-11-30T01:12:42.819Z,95645.09
2023-11-30T01:15:11.588Z,95639.84
2023-11-30T01:17:39.264Z,95642.56
2023-11-30T01:20:08.540Z,95633.97
2023-11-30T01:22:35.982Z,95622.09
2023-11-30T01:25:05.589Z,95633.34
2023-11-30T01:27:33.221Z,95625.75
2023-11-30T01:30:01.006Z,95617.97
2023-11-30T01:32:28.901Z,95619.22
2023-11-30T01:34:56.514Z,95628.66
2023-11-30T01:37:24.465Z,95634.00
2023-11-30T01:39:52.053Z,95636.00
2023-11-30T01:42:21.056Z,95630.94
2023-11-30T01:44:48.772Z,95621.94
2023-11-30T01:47:17.236Z,95619.31
2023-11-30T01:49:45.060Z,95619.31
2023-11-30T01:52:13.082Z,95614.91
2023-11-30T01:54:41.284Z,95612.69
2023-11-30T01:57:08.965Z,95614.47
2023-11-30T01:59:38.354Z,95624.88
2023-11-30T02:02:06.337Z,95613.28
2023-11-30T02:04:35.908Z,95602.16
2023-11-30T02:07:05.121Z,95598.78
2023-11-30T02:09:32.703Z,95594.16
2023-11-30T02:12:01.417Z,95584.28
2023-11-30T02:14:29.040Z,95578.41
2023-11-30T02:16:57.985Z,95576.06
2023-11-30T02:19:25.731Z,95585.91
2023-11-30T02:21:54.656Z,95591.16
2023-11-30T02:24:22.341Z,95593.59
2023-11-30T02:26:50.030Z,95592.81
2023-11-30T02:29:18.071Z,95593.97
2023-11-30T02:31:45.824Z,95586.28
2023-11-30T02:34:13.517Z,95587.66
2023-11-30T02:36:41.130Z,95594.69
2023-11-30T02:39:10.607Z,95583.56
2023-11-30T02:41:38.276Z,95584.41
2023-11-30T02:44:06.789Z,95580.31
2023-11-30T02:46:34.424Z,95572.34
2023-11-30T02:49:02.141Z,95572.63
2023-11-30T02:51:30.033Z,95571.91
2023-11-30T02:53:58.142Z,95574.00
2023-11-30T02:56:27.203Z,95567.00
2023-11-30T02:58:54.795Z,95574.63
2023-11-30T03:01:22.569Z,95566.28
2023-11-30T03:03:50.231Z,95580.13
2023-11-30T03:06:17.913Z,95571.22
2023-11-30T03:08:47.759Z,95573.38
2023-11-30T03:11:16.605Z,95567.50
2023-11-30T03:13:45.579Z,95559.72
2023-11-30T03:16:13.228Z,95566.94
2023-11-30T03:18:41.604Z,95559.81
2023-11-30T03:21:17.849Z,95557.09
2023-11-30T03:23:46.073Z,95559.72
2023-11-30T03:26:16.569Z,95544.09
2023-11-30T03:28:45.795Z,95541.94
2023-11-30T03:31:13.249Z,95531.47
2023-11-30T03:33:40.878Z,95534.84
2023-11-30T03:36:09.942Z,95529.38
2023-11-30T03:38:37.717Z,95521.84
2023-11-30T03:41:05.644Z,95520.06
2023-11-30T03:43:33.302Z,95520.50
2023-11-30T03:46:02.250Z,95517.06
2023-11-30T03:48:29.917Z,95504.25
2023-11-30T03:50:57.674Z,95512.44
2023-11-30T03:53:25.284Z,95508.25
2023-11-30T03:55:52.951Z,95505.94
2023-11-30T03:58:20.552Z,95494.59
2023-11-30T04:00:48.253Z,95494.78
2023-11-30T04:03:17.242Z,95501.53
2023-11-30T04:05:45.051Z,95488.06
2023-11-30T04:08:12.934Z,95486.00
2023-11-30T04:10:40.554Z,95486.38
2023-11-30T04:13:08.231Z,95476.16
2023-11-30T04:15:35.898Z,95474.25
2023-11-30T04:18:04.521Z,95472.81
2023-11-30T04:20:33.591Z,95465.03
2023-11-30T04:23:01.192Z,95456.97
2023-11-30T04:25:28.885Z,95459.59
2023-11-30T04:27:58.813Z,95464.75
2023-11-30T04:30:26.735Z,95461.25
2023-11-30T04:32:54.490Z,95464.94
2023-11-30T04:35:25.912Z,95470.28
2023-11-30T04:37:54.883Z,95469.81
2023-11-30T04:40:23.107Z,95460.00
2023-11-30T04:42:50.751Z,95464.31
2023-11-30T04:45:19.852Z,95460.53
2023-11-30T04:47:48.511Z,95458.00
2023-11-30T04:50:16.381Z,95458.09
2023-11-30T04:52:45.087Z,95450.75
2023-11-30T04:55:14.617Z,95452.22
2023-11-30T04:57:42.212Z,95448.63
2023-11-30T05:00:11.079Z,95448.81
2023-11-30T05:02:39.766Z,95446.28
2023-11-30T05:05:08.594Z,95449.19
2023-11-30T05:07:36.226Z,95448.75
2023-11-30T05:10:03.925Z,95459.41
2023-11-30T05:12:33.064Z,95451.47
2023-11-30T05:15:00.805Z,95451.25
2023-11-30T05:17:28.528Z,95445.66
2023-11-30T05:19:57.715Z,95433.78
2023-11-30T05:22:25.328Z,95422.75
2023-11-30T05:24:52.915Z,95432.84
2023-11-30T05:27:20.584Z,95426.22
2023-11-30T05:29:49.690Z,95429.47
2023-11-30T05:32:17.849Z,95434.81
2023-11-30T05:34:45.560Z,95438.16
2023-11-30T05:37:13.194Z,95442.47
2023-11-30T05:39:40.911Z,95441.75
2023-11-30T05:42:11.175Z,95430.31
2023-11-30T05:44:38.873Z,95427.88
2023-11-30T05:47:08.000Z,95435.06
2023-11-30T05:49:35.725Z,95434.72
2023-11-30T05:52:03.531Z,95439.69
2023-11-30T05:54:31.233Z,95429.00
2023-11-30T05:57:00.991Z,95431.53
2023-11-30T05:59:29.005Z,95428.34
2023-11-30T06:01:56.739Z,95421.06
2023-11-30T06:04:25.820Z,95427.66
2023-11-30T06:06:53.520Z,95427.47
2023-11-30T06:09:21.442Z,95413.84
2023-11-30T06:11:49.108Z,95415.50
2023-11-30T06:14:16.695Z,95414.47
2023-11-30T06:16:44.337Z,95409.88
2023-11-30T06:19:12.278Z,95409.88
2023-11-30T06:21:41.590Z,95409.66
2023-11-30T06:24:09.342Z,95402.97
2023-11-30T06:26:37.009Z,95405.25
2023-11-30T06:29:04.610Z,95397.25
2023-11-30T06:31:32.315Z,95403.38
2023-11-30T06:33:59.947Z,95395.88
2023-11-30T06:36:27.645Z,95388.56
2023-11-30T06:38:56.597Z,95378.09
2023-11-30T06:41:24.325Z,95378.81
2023-11-30T06:43:51.904Z,95379.88
2023-11-30T06:46:23.870Z,95385.13
2023-11-30T06:48:51.577Z,95381.53
2023-11-30T06:51:19.834Z,95390.06
2023-11-30T06:53:47.494Z,95398.84
2023-11-30T06:56:16.501Z,95388.19
2023-11-30T06:58:44.131Z,95396.97
2023-11-30T07:01:12.102Z,95396.22
2023-11-30T07:03:42.896Z,95384.91
2023-11-30T07:06:11.881Z,95374.16
2023-11-30T07:08:39.658Z,95361.97
2023-11-30T07:11:09.719Z,95353.41
2023-11-30T07:13:38.752Z,95363.78
2023-11-30T07:16:07.783Z,95368.63
2023-11-30T07:18:35.828Z,95377.88
2023-11-30T07:21:05.097Z,95385.41
2023-11-30T07:23:32.834Z,95392.16
2023-11-30T07:26:00.612Z,95391.09
2023-11-30T07:28:28.358Z,95387.97
2023-11-30T07:30:57.338Z,95399.06
2023-11-30T07:33:24.987Z,95394.47
2023-11-30T07:35:52.667Z,95393.31
2023-11-30T07:38:20.281Z,95397.19
2023-11-30T07:40:47.928Z,95398.97
2023-11-30T07:43:15.571Z,95393.22
2023-11-30T07:45:43.432Z,95386.91
2023-11-30T07:48:12.499Z,95384.75
2023-11-30T07:50:41.425Z,95376.78
2023-11-30T07:53:10.679Z,95381.38
2023-11-30T07:55:38.509Z,95378.66
2023-11-30T07:58:06.370Z,95367.00
2023-11-30T08:00:34.616Z,95364.91
2023-11-30T08:03:02.880Z,95358.72
2023-11-30T08:05:32.256Z,95363.66
2023-11-30T08:07:59.864Z,95361.84
2023-11-30T08:10:27.902Z,95374.34
2023-11-30T08:12:55.742Z,95373.19
2023-11-30T08:15:23.510Z,95365.19
2023-11-30T08:17:51.751Z,95377.69
2023-11-30T08:20:19.559Z,95373.06
2023-11-30T08:22:48.532Z,95372.56
2023-11-30T08:25:17.085Z,95365.09
2023-11-30T08:27:48.146Z,95353.44
2023-11-30T08:30:18.576Z,95358.78
2023-11-30T08:32:46.364Z,95359.00
2023-11-30T08:35:13.988Z,95351.84
2023-11-30T08:37:41.744Z,95338.78
2023-11-30T08:40:12.460Z,95336.66
2023-11-30T08:42:40.160Z,95340.50
2023-11-30T08:45:09.015Z,95348.78
2023-11-30T08:47:37.081Z,95350.59
2023-11-30T08:50:06.064Z,95345.31
2023-11-30T08:52:33.655Z,95344.16
2023-11-30T08:55:01.529Z,95343.31
2023-11-30T08:57:30.881Z,95333.19
2023-11-30T08:59:58.574Z,95335.59
2023-11-30T09:02:26.430Z,95338.72
2023-11-30T09:04:54.122Z,95342.69
2023-11-30T09:07:21.844Z,95332.69
2023-11-30T09:09:51.519Z,95329.72
2023-11-30T09:12:19.671Z,95329.50
2023-11-30T09:14:49.509Z,95322.84
2023-11-30T09:17:17.896Z,95335.88
2023-11-30T09:19:45.686Z,95338.03
2023-11-30T09:22:13.332Z,95350.00
2023-11-30T09:24:41.173Z,95345.56
2023-11-30T09:27:09.774Z,95341.78
2023-11-30T09:29:37.635Z,95341.31
2023-11-30T09:32:07.221Z,95335.59
2023-11-30T09:34:34.833Z,95330.00
2023-11-30T09:37:02.500Z,95329.66
2023-11-30T09:39:30.098Z,95336.00
2023-11-30T09:42:00.971Z,95340.06
2023-11-30T09:44:29.216Z,95338.50
2023-11-30T09:46:57.100Z,95335.31
2023-11-30T09:49:27.148Z,95335.16
2023-11-30T09:51:54.952Z,95327.41
2023-11-30T09:54:24.063Z,95338.53
2023-11-30T09:56:51.924Z,95326.44
2023-11-30T09:59:19.594Z,95321.53
2023-11-30T10:01:47.498Z,95308.88
2023-11-30T10:04:15.877Z,95299.06
2023-11-30T10:06:48.122Z,95301.69
2023-11-30T10:09:16.755Z,95297.16
2023-11-30T10:11:44.983Z,95297.88
2023-11-30T10:14:12.971Z,95300.63
2023-11-30T10:16:42.045Z,95297.16
2023-11-30T10:19:09.817Z,95288.41
2023-11-30T10:21:38.826Z,95267.44
2023-11-30T10:24:09.087Z,95275.69
2023-11-30T10:26:38.220Z,95283.00
2023-11-30T10:29:07.754Z,95279.03
2023-11-30T10:31:37.337Z,95285.34
2023-11-30T10:34:10.607Z,95284.25
2023-11-30T10:36:40.506Z,95275.28
2023-11-30T10:39:17.275Z,95269.50
2023-11-30T10:41:51.878Z,95267.09
2023-11-30T10:44:27.253Z,95259.47
2023-11-30T10:46:56.647Z,95257.31
2023-11-30T10:49:25.552Z,95270.69
2023-11-30T10:51:57.234Z,95254.22
2023-11-30T10:54:34.523Z,95256.50
2023-11-30T10:57:03.422Z,95244.81
2023-11-30T10:59:32.035Z,95248.94
2023-11-30T11:02:00.520Z,95233.50
2023-11-30T11:04:29.099Z,95235.63
2023-11-30T11:07:03.587Z,95249.84
2023-11-30T11:09:43.348Z,95245.38
2023-11-30T11:12:21.557Z,95260.25
2023-11-30T11:14:50.606Z,95259.56
2023-11-30T11:17:22.182Z,95255.09
2023-11-30T11:19:49.813Z,95259.81
2023-11-30T11:22:19.696Z,95264.22
2023-11-30T11:24:50.245Z,95256.97
2023-11-30T11:27:31.187Z,95251.47
2023-11-30T11:29:59.904Z,95247.84
2023-11-30T11:32:27.784Z,95240.03
2023-11-30T11:34:55.635Z,95240.91
2023-11-30T11:37:23.385Z,95239.28
2023-11-30T11:39:53.203Z,95233.44
2023-11-30T11:42:21.321Z,95238.19
2023-11-30T11:44:49.751Z,95226.66
2023-11-30T11:47:17.447Z,95237.59
2023-11-30T11:49:45.404Z,95230.59
2023-11-30T11:52:20.593Z,95214.38
2023-11-30T11:54:48.571Z,95212.91
2023-11-30T11:57:18.047Z,95213.66
2023-11-30T11:59:45.670Z,95219.91
2023-11-30T12:02:20.572Z,95232.84
2023-11-30T12:04:48.261Z,95244.81
2023-11-30T12:07:17.448Z,95245.50
2023-11-30T12:09:55.514Z,95245.22
2023-11-30T12:12:32.564Z,95237.56
2023-11-30T12:15:00.566Z,95234.13
2023-11-30T12:17:28.249Z,95229.38
2023-11-30T12:19:55.936Z,95229.81
2023-11-30T12:22:22.668Z,95230.47
2023-11-30T12:24:50.354Z,95232.28
2023-11-30T12:27:18.033Z,95215.16
2023-11-30T12:29:47.034Z,95204.16
2023-11-30T12:32:14.999Z,95192.22
2023-11-30T12:34:42.688Z,95201.22
2023-11-30T12:37:10.582Z,95203.00
2023-11-30T12:39:38.703Z,95196.91
2023-11-30T12:42:06.865Z,95203.78
2023-11-30T12:44:35.486Z,95210.75
2023-11-30T12:47:04.813Z,95207.97
2023-11-30T12:49:34.265Z,95207.97
2023-11-30T12:52:02.150Z,95208.81
2023-11-30T12:54:29.839Z,95211.22
2023-11-30T12:56:57.465Z,95215.91
2023-11-30T12:59:25.216Z,95216.97
2023-11-30T13:01:55.472Z,95214.41
2023-11-30T13:04:25.656Z,95207.69
2023-11-30T13:06:53.410Z,95212.78
2023-11-30T13:09:21.172Z,95203.41
2023-11-30T13:11:49.264Z,95197.88
2023-11-30T13:14:17.358Z,95189.00
2023-11-30T13:16:46.034Z,95191.38
2023-11-30T13:19:13.734Z,95196.66
2023-11-30T13:21:42.747Z,95209.50
2023-11-30T13:24:10.415Z,95209.13
2023-11-30T13:26:38.054Z,95213.28
2023-11-30T13:29:05.664Z,95208.63
2023-11-30T13:31:33.416Z,95215.56
2023-11-30T13:34:01.060Z,95214.59
2023-11-30T13:36:28.734Z,95205.63
2023-11-30T13:38:57.792Z,95209.69
2023-11-30T13:41:25.403Z,95212.63
2023-11-30T13:43:53.078Z,95225.44
2023-11-30T13:46:22.332Z,95219.63
2023-11-30T13:48:50.082Z,95202.69
2023-11-30T13:51:17.749Z,95199.94
2023-11-30T13:53:45.357Z,95199.09
2023-11-30T13:56:15.261Z,95202.31
2023-11-30T13:58:42.877Z,95207.72
2023-11-30T14:01:11.190Z,95196.47
2023-11-30T14:03:39.066Z,95198.50
2023-11-30T14:06:07.341Z,95201.56
2023-11-30T14:08:35.952Z,95195.50
2023-11-30T14:11:06.566Z,95191.91
2023-11-30T14:13:35.556Z,95188.59
2023-11-30T14:16:04.141Z,95182.78
2023-11-30T14:18:31.835Z,95189.28
2023-11-30T14:21:00.579Z,95190.53
2023-11-30T14:23:29.066Z,95195.06
2023-11-30T14:25:57.466Z,95202.53
2023-11-30T14:28:27.298Z,95204.94
2023-11-30T14:30:56.404Z,95196.13
2023-11-30T14:33:24.155Z,95206.25
2023-11-30T14:35:51.790Z,95203.34
2023-11-30T14:38:19.432Z,95209.69
2023-11-30T14:40:47.328Z,95210.09
2023-11-30T14:43:15.355Z,95213.72
2023-11-30T14:45:43.193Z,95194.78
2023-11-30T14:48:12.550Z,95207.25
2023-11-30T14:50:40.245Z,95221.88
2023-11-30T14:53:07.984Z,95217.09
2023-11-30T14:55:35.601Z,95211.81
2023-11-30T14:58:04.615Z,95203.91
2023-11-30T15:00:32.688Z,95221.22
2023-11-30T15:03:02.992Z,95230.00
2023-11-30T15:05:31.980Z,95205.47
2023-11-30T15:08:01.053Z,95204.47
2023-11-30T15:10:29.043Z,95216.97
2023-11-30T15:12:56.668Z,95217.75
2023-11-30T15:15:24.498Z,95226.59
2023-11-30T15:17:53.486Z,95201.72
2023-11-30T15:20:23.323Z,95194.91
2023-11-30T15:22:52.419Z,95178.00
2023-11-30T15:25:20.905Z,95198.47
2023-11-30T15:27:50.211Z,95214.63
2023-11-30T15:30:18.397Z,95238.63
2023-11-30T15:32:46.355Z,95224.25
2023-11-30T15:35:14.090Z,95211.00
2023-11-30T15:37:47.208Z,95235.69
2023-11-30T15:40:17.776Z,95248.00
2023-11-30T15:42:46.118Z,95262.72
2023-11-30T15:45:15.300Z,95280.81
2023-11-30T15:47:43.225Z,95268.78
2023-11-30T15:50:12.224Z,95252.03
2023-11-30T15:52:40.684Z,95239.56
2023-11-30T15:55:11.617Z,95255.16
2023-11-30T15:57:40.706Z,95269.81
2023-11-30T16:00:10.009Z,95253.00
2023-11-30T16:02:41.077Z,95223.34
2023-11-30T16:05:09.365Z,95221.66
2023-11-30T16:07:37.023Z,95247.75
2023-11-30T16:10:06.021Z,95252.78
2023-11-30T16:12:33.735Z,95277.91
2023-11-30T16:15:03.835Z,95287.47
2023-11-30T16:17:31.493Z,95279.25
2023-11-30T16:19:59.426Z,95254.00
2023-11-30T16:22:27.204Z,95248.44
2023-11-30T16:24:54.990Z,95266.91
2023-11-30T16:27:22.879Z,95280.94
2023-11-30T16:29:50.748Z,95280.13
2023-11-30T16:32:19.799Z,95281.44
2023-11-30T16:34:47.431Z,95268.75
2023-11-30T16:37:15.052Z,95258.47
2023-11-30T16:39:42.939Z,95227.97
2023-11-30T16:42:10.605Z,95221.97
2023-11-30T16:44:38.217Z,95227.50
2023-11-30T16:47:06.251Z,95223.06
2023-11-30T16:49:34.359Z,95260.78
2023-11-30T16:52:02.018Z,95250.47
2023-11-30T16:54:29.799Z,95280.38
2023-11-30T16:56:57.441Z,95282.06
2023-11-30T16:59:25.286Z,95281.22
2023-11-30T17:01:52.932Z,95270.81
2023-11-30T17:04:20.899Z,95261.25
2023-11-30T17:06:51.496Z,95260.53
2023-11-30T17:09:19.381Z,95237.91
2023-11-30T17:11:47.049Z,95237.22
2023-11-30T17:14:14.764Z,95232.06
2023-11-30T17:16:42.370Z,95233.13
2023-11-30T17:19:09.976Z,95243.66
2023-11-30T17:21:37.636Z,95240.66
2023-11-30T17:24:09.648Z,95263.66
2023-11-30T17:26:37.254Z,95269.28
2023-11-30T17:29:04.880Z,95268.16
2023-11-30T17:31:32.461Z,95258.84
2023-11-30T17:34:00.412Z,95249.88
2023-11-30T17:36:28.160Z,95256.22
2023-11-30T17:38:55.775Z,95272.72
2023-11-30T17:41:24.750Z,95267.69
2023-11-30T17:43:52.499Z,95264.25
2023-11-30T17:46:20.129Z,95252.53
2023-11-30T17:48:48.203Z,95246.06
2023-11-30T17:51:18.980Z,95251.66
2023-11-30T17:53:47.572Z,95243.88
2023-11-30T17:56:15.305Z,95237.91
2023-11-30T17:58:44.404Z,95224.63
2023-11-30T18:01:12.100Z,95244.13
2023-11-30T18:03:39.833Z,95233.47
2023-11-30T18:06:10.416Z,95245.09
2023-11-30T18:08:38.049Z,95248.81
2023-11-30T18:11:05.945Z,95255.75
2023-11-30T18:13:33.554Z,95262.09
2023-11-30T18:16:04.515Z,95269.97
2023-11-30T18:18:32.456Z,95269.16
2023-11-30T18:21:00.226Z,95263.06
2023-11-30T18:23:27.826Z,95241.66
2023-11-30T18:25:55.483Z,95255.28
2023-11-30T18:28:23.301Z,95253.59
2023-11-30T18:30:52.048Z,95245.00
2023-11-30T18:33:22.288Z,95248.81
2023-11-30T18:35:50.574Z,95240.22
2023-11-30T18:38:18.309Z,95248.47
2023-11-30T18:40:46.222Z,95263.78
2023-11-30T18:43:17.043Z,95242.59
2023-11-30T18:45:44.798Z,95252.31
2023-11-30T18:48:12.449Z,95246.19
2023-11-30T18:50:41.427Z,95245.94
2023-11-30T18:53:09.288Z,95242.59
2023-11-30T18:55:37.088Z,95253.97
2023-11-30T18:58:04.841Z,95242.59
2023-11-30T19:00:32.552Z,95240.69
2023-11-30T19:03:00.796Z,95236.03
2023-11-30T19:05:28.545Z,95244.75
2023-11-30T19:07:57.543Z,95245.72
2023-11-30T19:10:25.137Z,95232.66
2023-11-30T19:12:53.704Z,95234.34
2023-11-30T19:15:21.483Z,95244.06
2023-11-30T19:17:49.866Z,95234.59
2023-11-30T19:20:17.834Z,95247.63
2023-11-30T19:22:47.027Z,95250.03
2023-11-30T19:25:15.950Z,95247.03
2023-11-30T19:27:43.612Z,95258.88
2023-11-30T19:30:12.856Z,95254.81
2023-11-30T19:32:40.480Z,95254.09
2023-11-30T19:35:09.307Z,95275.00
2023-11-30T19:37:36.989Z,95282.19
2023-11-30T19:40:05.303Z,95274.88
2023-11-30T19:42:34.348Z,95265.34
2023-11-30T19:45:01.972Z,95263.41
2023-11-30T19:47:29.635Z,95266.88
2023-11-30T19:49:57.246Z,95259.84
2023-11-30T19:52:24.867Z,95262.00
2023-11-30T19:54:52.648Z,95255.75
2023-11-30T19:57:20.628Z,95250.63
2023-11-30T19:59:49.605Z,95256.00
2023-11-30T20:02:17.264Z,95268.44
2023-11-30T20:04:44.972Z,95272.75
2023-11-30T20:07:12.826Z,95276.09
2023-11-30T20:09:40.570Z,95274.78
2023-11-30T20:12:09.854Z,95285.69
2023-11-30T20:14:37.339Z,95298.84
2023-11-30T20:17:06.366Z,95300.50
2023-11-30T20:19:36.258Z,95298.22
2023-11-30T20:22:04.436Z,95292.38
2023-11-30T20:24:35.367Z,95286.63
2023-11-30T20:27:06.680Z,95292.38
2023-11-30T20:29:34.582Z,95292.13
2023-11-30T20:32:02.775Z,95293.78
2023-11-30T20:34:31.784Z,95288.88
2023-11-30T20:36:59.660Z,95290.34
2023-11-30T20:39:27.602Z,95287.94
2023-11-30T20:41:55.877Z,95296.66
2023-11-30T20:44:23.464Z,95292.72
2023-11-30T20:46:51.408Z,95288.19
2023-11-30T20:49:19.037Z,95296.78
2023-11-30T20:51:48.414Z,95295.72
2023-11-30T20:54:16.169Z,95283.16
2023-11-30T20:56:48.092Z,95280.41
2023-11-30T20:59:16.199Z,95289.97
2023-11-30T21:01:44.575Z,95302.03
2023-11-30T21:04:12.342Z,95295.84
2023-11-30T21:06:40.042Z,95301.69
2023-11-30T21:09:09.112Z,95306.72
2023-11-30T21:11:39.543Z,95310.06
2023-11-30T21:14:08.527Z,95316.06
2023-11-30T21:16:36.166Z,95298.59
2023-11-30T21:19:04.491Z,95304.91
2023-11-30T21:21:32.208Z,95304.78
2023-11-30T21:23:59.817Z,95316.41
2023-11-30T21:26:28.766Z,95303.25
2023-11-30T21:28:56.377Z,95295.94
2023-11-30T21:31:24.059Z,95308.41
2023-11-30T21:33:52.201Z,95293.78
2023-11-30T21:36:20.180Z,95289.84
2023-11-30T21:38:47.783Z,95296.66
2023-11-30T21:41:16.243Z,95285.91
2023-11-30T21:43:45.259Z,95263.41
2023-11-30T21:46:13.099Z,95290.56
2023-11-30T21:48:40.883Z,95282.91
2023-11-30T21:51:09.063Z,95290.91
2023-11-30T21:53:36.719Z,95288.88
2023-11-30T21:56:04.595Z,95288.06
2023-11-30T21:58:34.072Z,95291.16
2023-11-30T22:01:05.460Z,95292.72
2023-11-30T22:03:33.431Z,95285.66
2023-11-30T22:06:01.274Z,95291.63
2023-11-30T22:08:30.566Z,95281.69
2023-11-30T22:10:58.093Z,95277.50
2023-11-30T22:13:25.892Z,95294.25
2023-11-30T22:15:59.810Z,95280.84
2023-11-30T22:18:33.172Z,95269.63
2023-11-30T22:21:00.989Z,95259.31
2023-11-30T22:23:28.959Z,95246.84
2023-11-30T22:26:02.584Z,95262.19
2023-11-30T22:28:32.309Z,95282.31
2023-11-30T22:31:00.518Z,95272.00
2023-11-30T22:33:28.267Z,95268.91
2023-11-30T22:35:57.552Z,95274.28
2023-11-30T22:38:26.858Z,95268.91
2023-11-30T22:40:55.467Z,95278.47
2023-11-30T22:43:23.193Z,95273.44
2023-11-30T22:45:50.913Z,95270.69
2023-11-30T22:48:18.600Z,95283.03
2023-11-30T22:50:46.349Z,95278.97
2023-11-30T22:53:14.473Z,95286.00
2023-11-30T22:55:42.334Z,95289.50
2023-11-30T22:58:10.098Z,95289.22
2023-11-30T23:00:38.263Z,95297.63
2023-11-30T23:03:06.185Z,95303.25
2023-11-30T23:05:34.044Z,95313.66
2023-11-30T23:08:01.664Z,95317.59
2023-11-30T23:10:30.616Z,95318.94
2023-11-30T23:13:00.944Z,95311.63
2023-11-30T23:15:28.850Z,95323.00
2023-11-30T23:17:57.147Z,95337.59
2023-11-30T23:20:24.893Z,95330.41
2023-11-30T23:22:52.508Z,95333.63
2023-11-30T23:25:20.351Z,95339.75
2023-11-30T23:27:49.691Z,95346.22
2023-11-30T23:30:17.454Z,95346.09
2023-11-30T23:32:47.784Z,95338.06
2023-11-30T23:35:16.369Z,95349.56
2023-11-30T23:37:44.028Z,95339.75
2023-11-30T23:40:13.037Z,95341.06
2023-11-30T23:42:40.756Z,95333.53
2023-11-30T23:45:11.648Z,95324.44
2023-11-30T23:47:39.322Z,95323.59
2023-11-30T23:50:07.927Z,95309.47
2023-11-30T23:52:35.586Z,95310.06
2023-11-30T23:55:03.556Z,95310.28
2023-11-30T23:57:32.389Z,95297.88
